Doss, Texas
Current Conditions -  °F | °C
As of 4:35 PM on Thursday 20 Nov 2014 (Local Time) from KT82 Reporting Station
Broken Clouds Broken Clouds  
Wind Chill: 66°   Ceiling: 2900
Heat Index: 66°   Visibility: 10mi
Dew Point: 55°   Wind: 12mph
Humidity: 69%   Direction: 190°S
Pressure: 30.01"   Gusts: NA
Location:  30.45°N, 99.13°W
Report Text: KT82 202235Z AUTO 19010KT 10SM SCT023 BKN029 19/13 A3001 RMK AO2 T01870130
Loading
Personal Weather Stations






























Interactive Weather Map New forecast layout! Learn more

10-Day Weather Forecast

Advertisements
Track Severe Weather on mobile